createdAt,value
2019-05-23T00:00:10.518Z,10.50
2019-05-23T00:02:49.005Z,10.40
2019-05-23T00:05:23.344Z,10.40
2019-05-23T00:07:52.585Z,10.40
2019-05-23T00:10:23.324Z,10.30
2019-05-23T00:12:55.055Z,10.30
2019-05-23T00:15:29.096Z,10.20
2019-05-23T00:18:00.518Z,10.20
2019-05-23T00:20:33.134Z,10.20
2019-05-23T00:23:03.221Z,10.20
2019-05-23T00:25:34.020Z,10.20
2019-05-23T00:28:03.641Z,10.10
2019-05-23T00:30:34.435Z,10.10
2019-05-23T00:33:05.449Z,10.20
2019-05-23T00:35:34.907Z,10.40
2019-05-23T00:38:06.168Z,10.50
2019-05-23T00:40:36.155Z,10.60
2019-05-23T00:43:07.149Z,10.60
2019-05-23T00:45:36.571Z,10.60
2019-05-23T00:48:06.900Z,10.60
2019-05-23T00:50:35.983Z,10.70
2019-05-23T00:53:05.897Z,10.70
2019-05-23T00:55:36.279Z,10.70
2019-05-23T00:58:05.671Z,10.70
2019-05-23T01:00:35.052Z,10.70
2019-05-23T01:03:05.420Z,10.70
2019-05-23T01:05:35.736Z,10.80
2019-05-23T01:08:06.899Z,10.80
2019-05-23T01:10:36.491Z,10.80
2019-05-23T01:13:06.477Z,10.90
2019-05-23T01:15:45.564Z,10.90
2019-05-23T01:18:15.472Z,10.90
2019-05-23T01:21:01.484Z,11.00
2019-05-23T01:23:32.563Z,11.00
2019-05-23T01:26:02.639Z,11.00
2019-05-23T01:28:32.189Z,11.00
2019-05-23T01:31:06.623Z,11.00
2019-05-23T01:33:37.019Z,11.00
2019-05-23T01:36:07.493Z,11.00
2019-05-23T01:38:37.881Z,10.90
2019-05-23T01:41:07.337Z,10.90
2019-05-23T01:43:36.490Z,10.80
2019-05-23T01:46:06.364Z,10.80
2019-05-23T01:48:35.691Z,10.70
2019-05-23T01:51:05.854Z,10.70
2019-05-23T01:53:36.661Z,10.60
2019-05-23T01:56:06.883Z,10.60
2019-05-23T01:58:36.059Z,10.70
2019-05-23T02:01:05.631Z,10.70
2019-05-23T02:03:35.889Z,10.70
2019-05-23T02:06:05.728Z,10.70
2019-05-23T02:08:35.803Z,10.70
2019-05-23T02:11:05.564Z,10.70
2019-05-23T02:13:35.023Z,10.80
2019-05-23T02:16:04.985Z,10.80
2019-05-23T02:18:34.146Z,10.80
2019-05-23T02:21:05.436Z,10.80
2019-05-23T02:23:34.870Z,10.80
2019-05-23T02:26:04.678Z,10.80
2019-05-23T02:28:35.117Z,10.70
2019-05-23T02:31:04.284Z,10.70
2019-05-23T02:33:33.880Z,10.70
2019-05-23T02:36:03.049Z,10.60
2019-05-23T02:38:50.370Z,10.50
2019-05-23T02:41:24.235Z,10.50
2019-05-23T02:43:57.485Z,10.40
2019-05-23T02:46:34.293Z,10.50
2019-05-23T02:49:05.252Z,10.50
2019-05-23T02:51:37.104Z,10.60
2019-05-23T02:54:09.637Z,10.60
2019-05-23T02:56:40.050Z,10.60
2019-05-23T02:59:16.893Z,10.60
2019-05-23T03:02:02.749Z,10.60
2019-05-23T03:04:33.560Z,10.60
2019-05-23T03:07:03.570Z,10.60
2019-05-23T03:09:34.181Z,10.60
2019-05-23T03:12:04.144Z,10.60
2019-05-23T03:14:34.300Z,10.60
2019-05-23T03:17:05.418Z,10.60
2019-05-23T03:19:44.845Z,10.60
2019-05-23T03:22:37.728Z,10.50
2019-05-23T03:25:16.167Z,10.40
2019-05-23T03:27:46.683Z,10.30
2019-05-23T03:30:17.694Z,10.30
2019-05-23T03:32:54.829Z,10.30
2019-05-23T03:35:25.987Z,10.30
2019-05-23T03:37:55.234Z,10.30
2019-05-23T03:40:24.662Z,10.30
2019-05-23T03:42:54.784Z,10.40
2019-05-23T03:45:25.679Z,10.40
2019-05-23T03:47:55.594Z,10.50
2019-05-23T03:50:25.934Z,10.60
2019-05-23T03:52:56.920Z,10.60
2019-05-23T03:55:28.322Z,10.60
2019-05-23T03:57:58.122Z,10.70
2019-05-23T04:00:28.865Z,10.70
2019-05-23T04:02:59.471Z,10.70
2019-05-23T04:05:29.472Z,10.80
2019-05-23T04:07:58.639Z,10.90
2019-05-23T04:10:27.798Z,11.00
2019-05-23T04:12:56.965Z,11.10
2019-05-23T04:15:28.009Z,11.20
2019-05-23T04:17:57.336Z,11.30
2019-05-23T04:20:26.664Z,11.30
2019-05-23T04:22:55.854Z,11.40
2019-05-23T04:25:25.295Z,11.40
2019-05-23T04:27:55.256Z,11.40
2019-05-23T04:30:24.476Z,11.30
2019-05-23T04:32:53.850Z,11.40
2019-05-23T04:35:24.129Z,11.40
2019-05-23T04:37:53.877Z,11.30
2019-05-23T04:40:23.251Z,11.30
2019-05-23T04:42:52.596Z,11.30
2019-05-23T04:45:22.048Z,11.30
2019-05-23T04:47:51.383Z,11.30
2019-05-23T04:50:21.330Z,11.20
2019-05-23T04:52:50.733Z,11.20
2019-05-23T04:55:21.066Z,11.20
2019-05-23T04:57:50.230Z,11.10
2019-05-23T05:00:21.571Z,11.20
2019-05-23T05:02:50.773Z,11.20
2019-05-23T05:05:20.444Z,11.30
2019-05-23T05:07:49.683Z,11.40
2019-05-23T05:10:22.366Z,11.50
2019-05-23T05:12:52.275Z,11.60
2019-05-23T05:15:22.191Z,11.70
2019-05-23T05:17:51.609Z,11.70
2019-05-23T05:20:21.235Z,11.70
2019-05-23T05:22:51.159Z,11.80
2019-05-23T05:25:20.733Z,11.90
2019-05-23T05:27:50.275Z,12.00
2019-05-23T05:30:19.810Z,12.00
2019-05-23T05:32:49.429Z,12.10
2019-05-23T05:35:19.001Z,12.20
2019-05-23T05:37:48.505Z,12.30
2019-05-23T05:40:18.488Z,12.40
2019-05-23T05:42:47.991Z,12.40
2019-05-23T05:45:17.238Z,12.50
2019-05-23T05:47:46.595Z,12.50
2019-05-23T05:50:17.370Z,12.60
2019-05-23T05:52:46.607Z,12.70
2019-05-23T05:55:15.839Z,12.80
2019-05-23T05:57:45.115Z,12.90
2019-05-23T06:00:27.120Z,13.10
2019-05-23T06:03:04.099Z,13.30
2019-05-23T06:05:46.535Z,13.40
2019-05-23T06:08:17.416Z,13.50
2019-05-23T06:10:47.007Z,13.60
2019-05-23T06:13:16.391Z,13.70
2019-05-23T06:15:45.795Z,13.90
2019-05-23T06:18:15.189Z,14.10
2019-05-23T06:20:46.560Z,14.00
2019-05-23T06:23:16.001Z,13.90
2019-05-23T06:25:45.699Z,13.80
2019-05-23T06:28:16.031Z,13.70
2019-05-23T06:30:46.441Z,13.70
2019-05-23T06:33:23.399Z,13.60
2019-05-23T06:35:47.692Z,13.60
2019-05-23T06:38:17.193Z,13.60
2019-05-23T06:40:47.259Z,13.60
2019-05-23T06:43:16.622Z,13.60
2019-05-23T06:45:45.736Z,13.70
2019-05-23T06:48:16.658Z,13.70
2019-05-23T06:50:46.098Z,13.70
2019-05-23T06:53:15.378Z,13.70
2019-05-23T06:55:44.605Z,13.60
2019-05-23T06:58:13.953Z,13.60
2019-05-23T07:00:43.370Z,13.60
2019-05-23T07:03:13.395Z,13.70
2019-05-23T07:05:44.077Z,13.70
2019-05-23T07:08:13.575Z,13.80
2019-05-23T07:10:44.669Z,13.80
2019-05-23T07:13:14.153Z,13.90
2019-05-23T07:15:43.750Z,13.90
2019-05-23T07:18:13.592Z,13.90
2019-05-23T07:20:42.770Z,13.90
2019-05-23T07:23:13.377Z,13.90
2019-05-23T07:25:42.561Z,13.90
2019-05-23T07:28:11.927Z,13.90
2019-05-23T07:30:41.146Z,14.00
2019-05-23T07:33:10.410Z,14.10
2019-05-23T07:35:39.581Z,14.20
2019-05-23T07:38:08.765Z,14.20
2019-05-23T07:40:38.112Z,14.20
2019-05-23T07:43:08.494Z,14.20
2019-05-23T07:45:46.068Z,14.30
2019-05-23T07:48:15.343Z,14.40
2019-05-23T07:50:45.521Z,14.50
2019-05-23T07:53:16.328Z,14.50
2019-05-23T07:55:56.614Z,14.50
2019-05-23T07:58:25.785Z,14.60
2019-05-23T08:00:59.301Z,14.70
2019-05-23T08:03:30.346Z,14.80
2019-05-23T08:05:59.682Z,15.00
2019-05-23T08:08:29.019Z,15.20
2019-05-23T08:10:58.123Z,15.30
2019-05-23T08:13:28.347Z,15.60
2019-05-23T08:15:57.611Z,15.90
2019-05-23T08:18:26.959Z,16.20
2019-05-23T08:20:56.137Z,16.30
2019-05-23T08:23:25.644Z,16.30
2019-05-23T08:25:55.444Z,16.40
2019-05-23T08:28:24.779Z,16.40
2019-05-23T08:30:54.746Z,16.40
2019-05-23T08:33:23.961Z,16.50
2019-05-23T08:35:54.869Z,16.50
2019-05-23T08:38:24.317Z,16.50
2019-05-23T08:40:54.531Z,16.70
2019-05-23T08:43:23.781Z,16.70
2019-05-23T08:45:53.226Z,16.80
2019-05-23T08:48:23.174Z,16.90
2019-05-23T08:50:52.543Z,17.10
2019-05-23T08:53:21.998Z,17.20
2019-05-23T08:55:51.704Z,17.30
2019-05-23T08:58:21.603Z,17.30
2019-05-23T09:00:52.127Z,17.30
2019-05-23T09:03:21.779Z,17.30
2019-05-23T09:05:52.543Z,17.40
2019-05-23T09:08:21.995Z,17.50
2019-05-23T09:10:51.188Z,17.50
2019-05-23T09:13:21.185Z,17.80
2019-05-23T09:15:53.068Z,17.80
2019-05-23T09:18:21.375Z,17.70
2019-05-23T09:20:50.553Z,17.70
2019-05-23T09:23:20.052Z,17.60
2019-05-23T09:25:49.240Z,17.50
2019-05-23T09:28:18.775Z,17.30
2019-05-23T09:30:48.231Z,17.20
2019-05-23T09:33:17.544Z,17.20
2019-05-23T09:35:46.897Z,17.40
2019-05-23T09:38:16.370Z,17.50
2019-05-23T09:40:45.919Z,17.30
2019-05-23T09:43:15.332Z,17.40
2019-05-23T09:45:44.715Z,17.60
2019-05-23T09:48:13.855Z,17.80
2019-05-23T09:50:43.142Z,17.90
2019-05-23T09:53:12.323Z,18.00
2019-05-23T09:55:41.427Z,17.90
2019-05-23T09:58:11.051Z,18.10
2019-05-23T10:00:41.820Z,18.00
2019-05-23T10:03:10.912Z,18.30
2019-05-23T10:05:43.312Z,18.40
2019-05-23T10:08:11.431Z,18.50
2019-05-23T10:10:41.396Z,18.70
2019-05-23T10:13:10.819Z,18.90
2019-05-23T10:15:41.629Z,19.00
2019-05-23T10:18:15.861Z,18.90
2019-05-23T10:20:45.185Z,18.90
2019-05-23T10:23:14.568Z,18.90
2019-05-23T10:25:43.808Z,19.10
2019-05-23T10:28:15.230Z,19.10
2019-05-23T10:30:44.542Z,19.30
2019-05-23T10:33:13.912Z,19.30
2019-05-23T10:35:58.997Z,19.40
2019-05-23T10:38:14.155Z,19.50
2019-05-23T10:40:43.646Z,19.50
2019-05-23T10:43:13.247Z,19.50
2019-05-23T10:45:42.344Z,19.50
2019-05-23T10:48:13.905Z,19.40
2019-05-23T10:50:45.203Z,19.40
2019-05-23T10:53:14.886Z,19.80
2019-05-23T10:55:44.061Z,19.90
2019-05-23T10:58:14.872Z,19.90
2019-05-23T11:00:45.021Z,19.90
2019-05-23T11:03:15.073Z,19.90
2019-05-23T11:05:44.360Z,19.70
2019-05-23T11:08:15.325Z,19.60
2019-05-23T11:10:44.565Z,19.60
2019-05-23T11:13:13.738Z,19.60
2019-05-23T11:15:43.854Z,19.60
2019-05-23T11:18:13.280Z,19.60
2019-05-23T11:20:42.604Z,19.60
2019-05-23T11:23:13.686Z,19.60
2019-05-23T11:25:43.471Z,19.40
2019-05-23T11:28:13.077Z,19.10
2019-05-23T11:30:45.654Z,19.00
2019-05-23T11:33:15.684Z,18.90
2019-05-23T11:35:46.180Z,18.90
2019-05-23T11:38:15.485Z,18.80
2019-05-23T11:40:44.935Z,18.80
2019-05-23T11:43:14.302Z,18.80
2019-05-23T11:45:47.502Z,18.70
2019-05-23T11:48:17.336Z,18.60
2019-05-23T11:50:47.047Z,18.60
2019-05-23T11:53:16.360Z,18.80
2019-05-23T11:55:46.089Z,18.90
2019-05-23T11:58:15.319Z,19.00
2019-05-23T12:00:55.503Z,19.10
2019-05-23T12:03:24.850Z,19.10
2019-05-23T12:05:54.175Z,19.00
2019-05-23T12:08:23.473Z,19.00
2019-05-23T12:10:52.614Z,18.90
2019-05-23T12:13:21.959Z,18.80
2019-05-23T12:15:51.440Z,18.70
2019-05-23T12:18:20.866Z,18.60
2019-05-23T12:20:50.664Z,18.70
2019-05-23T12:23:19.909Z,18.70
2019-05-23T12:25:49.636Z,18.70
2019-05-23T12:28:19.260Z,18.80
2019-05-23T12:30:48.721Z,18.80
2019-05-23T12:33:17.869Z,18.80
2019-05-23T12:35:47.087Z,18.90
2019-05-23T12:38:16.396Z,19.10
2019-05-23T12:40:45.560Z,19.10
2019-05-23T12:43:14.773Z,19.20
2019-05-23T12:45:43.951Z,19.40
2019-05-23T12:48:33.005Z,19.40
2019-05-23T12:51:09.708Z,19.30
2019-05-23T12:53:38.845Z,19.30
2019-05-23T12:56:08.266Z,19.40
2019-05-23T12:58:37.411Z,19.50
2019-05-23T13:01:08.311Z,19.60
2019-05-23T13:03:37.458Z,19.70
2019-05-23T13:06:08.020Z,19.80
2019-05-23T13:08:37.394Z,19.90
2019-05-23T13:11:06.687Z,19.90
2019-05-23T13:13:36.007Z,20.10
2019-05-23T13:16:05.514Z,20.20
2019-05-23T13:18:34.809Z,20.20
2019-05-23T13:21:04.237Z,20.30
2019-05-23T13:23:34.125Z,20.30
2019-05-23T13:26:09.721Z,20.30
2019-05-23T13:28:38.938Z,20.50
2019-05-23T13:31:08.294Z,20.70
2019-05-23T13:33:37.137Z,20.80
2019-05-23T13:36:06.167Z,20.80
2019-05-23T13:38:35.302Z,21.00
2019-05-23T13:41:04.406Z,21.10
2019-05-23T13:43:33.795Z,21.30
2019-05-23T13:46:02.653Z,21.30
2019-05-23T13:48:31.512Z,21.50
2019-05-23T13:51:00.689Z,21.70
2019-05-23T13:53:30.665Z,21.70
2019-05-23T13:55:59.752Z,21.70
2019-05-23T13:58:29.031Z,21.80
2019-05-23T14:00:58.269Z,21.90
2019-05-23T14:03:27.470Z,22.00
2019-05-23T14:05:56.357Z,22.10
2019-05-23T14:08:25.389Z,22.10
2019-05-23T14:10:54.973Z,22.10
2019-05-23T14:13:24.639Z,22.10
2019-05-23T14:15:54.030Z,22.20
2019-05-23T14:18:24.553Z,22.40
2019-05-23T14:20:53.545Z,22.60
2019-05-23T14:23:33.230Z,22.60
2019-05-23T14:26:02.743Z,23.00
2019-05-23T14:28:32.234Z,23.30
2019-05-23T14:31:14.351Z,23.20
2019-05-23T14:33:44.860Z,23.20
2019-05-23T14:36:31.710Z,23.60
2019-05-23T14:38:59.624Z,23.60
2019-05-23T14:41:44.205Z,23.50
2019-05-23T14:44:00.636Z,23.40
2019-05-23T14:46:31.183Z,23.40
2019-05-23T14:49:08.246Z,23.60
2019-05-23T14:51:45.097Z,23.90
2019-05-23T14:54:21.574Z,24.50
2019-05-23T14:56:50.500Z,24.50
2019-05-23T14:59:20.020Z,24.10
2019-05-23T15:01:49.752Z,24.00
2019-05-23T15:04:18.814Z,24.40
2019-05-23T15:06:47.729Z,24.90
2019-05-23T15:09:16.628Z,25.30
2019-05-23T15:11:45.666Z,25.40
2019-05-23T15:14:14.501Z,25.20
2019-05-23T15:16:43.393Z,24.80
2019-05-23T15:19:12.170Z,24.50
2019-05-23T15:21:41.418Z,24.30
2019-05-23T15:24:10.440Z,24.50
2019-05-23T15:26:39.472Z,24.60
2019-05-23T15:29:08.411Z,24.50
2019-05-23T15:31:37.327Z,24.70
2019-05-23T15:34:06.214Z,24.70
2019-05-23T15:36:35.367Z,24.70
2019-05-23T15:39:13.216Z,24.60
2019-05-23T15:41:42.223Z,24.70
2019-05-23T15:44:24.510Z,24.80
2019-05-23T15:46:41.558Z,24.70
2019-05-23T15:49:11.808Z,24.60
2019-05-23T15:51:45.066Z,24.80
2019-05-23T15:54:18.219Z,25.00
2019-05-23T15:56:51.386Z,24.80
2019-05-23T15:59:31.194Z,24.60
2019-05-23T16:02:01.679Z,24.60
2019-05-23T16:04:30.573Z,24.40
2019-05-23T16:07:00.222Z,24.60
2019-05-23T16:09:31.023Z,24.70
2019-05-23T16:12:00.100Z,24.80
2019-05-23T16:14:29.361Z,24.90
2019-05-23T16:16:58.376Z,24.90
2019-05-23T16:19:27.490Z,24.60
2019-05-23T16:21:56.734Z,24.40
2019-05-23T16:24:26.301Z,24.50
2019-05-23T16:26:55.588Z,24.60
2019-05-23T16:29:25.011Z,24.60
2019-05-23T16:31:54.172Z,24.90
2019-05-23T16:34:23.324Z,25.00
2019-05-23T16:36:52.258Z,25.10
2019-05-23T16:39:21.195Z,25.00
2019-05-23T16:41:50.128Z,24.80
2019-05-23T16:44:19.211Z,24.80
2019-05-23T16:46:48.097Z,24.80
2019-05-23T16:49:16.945Z,25.00
2019-05-23T16:51:45.832Z,25.00
2019-05-23T16:54:16.551Z,25.00
2019-05-23T16:56:55.986Z,25.00
2019-05-23T16:59:26.532Z,25.00
2019-05-23T17:02:05.575Z,25.00
2019-05-23T17:04:32.756Z,25.20
2019-05-23T17:07:03.381Z,25.00
2019-05-23T17:09:36.965Z,24.70
2019-05-23T17:12:23.913Z,25.00
2019-05-23T17:14:54.781Z,25.10
2019-05-23T17:18:00.835Z,25.10
2019-05-23T17:20:19.609Z,25.00
2019-05-23T17:22:45.997Z,25.00
2019-05-23T17:25:22.646Z,25.60
2019-05-23T17:27:56.065Z,26.00
2019-05-23T17:30:26.541Z,26.40
2019-05-23T17:32:55.909Z,26.40
2019-05-23T17:35:25.700Z,26.30
2019-05-23T17:37:54.555Z,25.80
2019-05-23T17:40:25.381Z,24.90
2019-05-23T17:42:54.011Z,24.20
2019-05-23T17:45:23.987Z,23.70
2019-05-23T17:47:53.233Z,23.30
2019-05-23T17:50:22.441Z,22.90
2019-05-23T17:52:51.287Z,22.70
2019-05-23T17:55:20.272Z,22.40
2019-05-23T17:57:49.192Z,22.10
2019-05-23T18:00:22.731Z,21.80
2019-05-23T18:02:51.599Z,21.60
2019-05-23T18:05:21.384Z,21.50
2019-05-23T18:07:50.711Z,21.40
2019-05-23T18:10:20.243Z,21.20
2019-05-23T18:12:49.381Z,21.10
2019-05-23T18:15:18.639Z,20.90
2019-05-23T18:17:49.612Z,20.80
2019-05-23T18:20:18.896Z,20.70
2019-05-23T18:22:47.761Z,20.60
2019-05-23T18:25:17.932Z,20.50
2019-05-23T18:27:47.365Z,20.40
2019-05-23T18:30:34.192Z,20.40
2019-05-23T18:33:04.306Z,20.30
2019-05-23T18:35:33.526Z,20.30
2019-05-23T18:38:03.113Z,20.20
2019-05-23T18:40:33.057Z,20.10
2019-05-23T18:43:04.476Z,20.00
2019-05-23T18:45:35.478Z,20.00
2019-05-23T18:48:04.903Z,19.80
2019-05-23T18:50:35.280Z,19.80
2019-05-23T18:53:06.469Z,19.70
2019-05-23T18:55:35.834Z,19.70
2019-05-23T18:58:05.822Z,19.60
2019-05-23T19:00:57.938Z,19.50
2019-05-23T19:03:27.533Z,19.30
2019-05-23T19:05:57.042Z,19.20
2019-05-23T19:08:27.147Z,19.10
2019-05-23T19:10:56.422Z,19.00
2019-05-23T19:13:26.754Z,18.90
2019-05-23T19:15:56.448Z,18.80
2019-05-23T19:18:26.170Z,18.80
2019-05-23T19:20:56.327Z,18.70
2019-05-23T19:23:26.024Z,18.60
2019-05-23T19:25:55.444Z,18.50
2019-05-23T19:28:25.665Z,18.30
2019-05-23T19:30:55.105Z,18.30
2019-05-23T19:33:25.070Z,18.20
2019-05-23T19:35:55.027Z,18.10
2019-05-23T19:38:25.360Z,18.00
2019-05-23T19:40:54.481Z,18.00
2019-05-23T19:43:23.693Z,18.00
2019-05-23T19:45:53.281Z,17.90
2019-05-23T19:48:23.286Z,17.80
2019-05-23T19:50:53.021Z,17.80
2019-05-23T19:53:22.345Z,17.70
2019-05-23T19:55:52.248Z,17.60
2019-05-23T19:58:21.541Z,17.50
2019-05-23T20:00:51.400Z,17.50
2019-05-23T20:03:20.668Z,17.40
2019-05-23T20:05:51.448Z,17.30
2019-05-23T20:08:20.823Z,17.20
2019-05-23T20:10:50.064Z,17.10
2019-05-23T20:13:19.297Z,17.10
2019-05-23T20:15:49.029Z,17.10
2019-05-23T20:18:18.723Z,17.00
2019-05-23T20:20:48.054Z,17.00
2019-05-23T20:23:17.882Z,16.90
2019-05-23T20:25:47.033Z,16.90
2019-05-23T20:28:16.154Z,16.80
2019-05-23T20:30:52.623Z,16.70
2019-05-23T20:33:22.108Z,16.70
2019-05-23T20:35:51.607Z,16.70
2019-05-23T20:38:20.891Z,16.60
2019-05-23T20:40:50.036Z,16.60
2019-05-23T20:43:19.353Z,16.50
2019-05-23T20:45:48.760Z,16.50
2019-05-23T20:48:18.440Z,16.50
2019-05-23T20:50:47.733Z,16.40
2019-05-23T20:53:17.008Z,16.40
2019-05-23T20:55:46.350Z,16.30
2019-05-23T20:58:15.939Z,16.30
2019-05-23T21:00:49.869Z,16.20
2019-05-23T21:03:19.510Z,16.20
2019-05-23T21:05:48.866Z,16.10
2019-05-23T21:08:18.019Z,16.00
2019-05-23T21:10:48.714Z,16.00
2019-05-23T21:13:18.312Z,15.90
2019-05-23T21:15:47.809Z,15.90
2019-05-23T21:18:17.049Z,15.80
2019-05-23T21:20:46.242Z,15.70
2019-05-23T21:23:15.509Z,15.70
2019-05-23T21:25:46.534Z,15.60
2019-05-23T21:28:15.735Z,15.50
2019-05-23T21:30:44.957Z,15.50
2019-05-23T21:33:15.683Z,15.50
2019-05-23T21:35:44.889Z,15.40
2019-05-23T21:38:14.047Z,15.40
2019-05-23T21:40:44.778Z,15.30
2019-05-23T21:43:14.279Z,15.30
2019-05-23T21:45:43.476Z,15.30
2019-05-23T21:48:12.879Z,15.30
2019-05-23T21:50:42.280Z,15.30
2019-05-23T21:53:11.419Z,15.20
2019-05-23T21:55:42.051Z,15.10
2019-05-23T21:58:12.854Z,15.10
2019-05-23T22:00:58.311Z,15.00
2019-05-23T22:03:27.858Z,15.00
2019-05-23T22:05:57.001Z,15.00
2019-05-23T22:08:26.211Z,14.90
2019-05-23T22:10:55.535Z,14.90
2019-05-23T22:13:24.979Z,14.90
2019-05-23T22:15:56.335Z,14.80
2019-05-23T22:18:25.816Z,14.80
2019-05-23T22:20:55.580Z,14.70
2019-05-23T22:23:24.726Z,14.70
2019-05-23T22:25:54.162Z,14.70
2019-05-23T22:28:23.483Z,14.70
2019-05-23T22:30:52.690Z,14.70
2019-05-23T22:33:23.409Z,14.70
2019-05-23T22:35:52.493Z,14.60
2019-05-23T22:38:21.571Z,14.50
2019-05-23T22:40:50.824Z,14.50
2019-05-23T22:43:21.337Z,14.50
2019-05-23T22:45:50.854Z,14.50
2019-05-23T22:48:20.297Z,14.40
2019-05-23T22:50:49.451Z,14.50
2019-05-23T22:53:19.010Z,14.40
2019-05-23T22:55:48.151Z,14.40
2019-05-23T22:58:17.832Z,14.40
2019-05-23T23:00:48.569Z,14.50
2019-05-23T23:03:17.789Z,14.50
2019-05-23T23:05:46.959Z,14.50
2019-05-23T23:08:17.207Z,14.40
2019-05-23T23:10:46.369Z,14.40
2019-05-23T23:13:16.275Z,14.40
2019-05-23T23:15:45.445Z,14.30
2019-05-23T23:18:14.644Z,14.30
2019-05-23T23:20:45.901Z,14.30
2019-05-23T23:23:14.602Z,14.20
2019-05-23T23:25:43.680Z,14.20
2019-05-23T23:28:12.820Z,14.20
2019-05-23T23:30:44.520Z,14.20
2019-05-23T23:33:13.730Z,14.10
2019-05-23T23:35:42.900Z,14.10
2019-05-23T23:38:12.044Z,14.10
2019-05-23T23:40:41.197Z,14.00
2019-05-23T23:43:10.508Z,14.00
2019-05-23T23:45:57.623Z,14.00
2019-05-23T23:48:44.922Z,14.00
2019-05-23T23:51:32.006Z,13.90
2019-05-23T23:54:19.050Z,13.90
2019-05-23T23:57:06.011Z,13.80
2019-05-23T23:59:34.472Z,13.80
